Time;durP1;ratioP1;P1;durP2;ratioP2;P2;SDS_P1;SDS_P2;PMS_P1;PMS_P2;Temp;Humidity;BMP_temperature;BMP_pressure;BME280_temperature;BME280_humidity;BME280_pressure;Samples;Min_cycle;Max_cycle;Signal;HPM_P1;HPM_P2
2023/06/23 00:01:15;;;;;;;5.70;3.78;;;19.10;99.90;;;;;;5017922;28;20057;-75
2023/06/23 00:03:43;;;;;;;3.78;3.40;;;19.10;99.90;;;;;;5018273;28;20061;-75
2023/06/23 00:06:09;;;;;;;6.78;3.55;;;19.20;99.90;;;;;;5017626;28;20117;-75
2023/06/23 00:08:35;;;;;;;4.75;2.72;;;19.20;99.90;;;;;;5017605;28;20065;-75
2023/06/23 00:11:01;;;;;;;4.53;3.10;;;19.20;99.90;;;;;;5017492;28;20029;-75
2023/06/23 00:13:27;;;;;;;4.93;3.30;;;19.20;99.90;;;;;;5017425;28;20022;-75
2023/06/23 00:15:53;;;;;;;3.17;2.47;;;19.10;99.90;;;;;;5017293;28;20014;-75
2023/06/23 00:18:20;;;;;;;3.45;2.70;;;19.20;99.90;;;;;;5017446;28;20033;-75
2023/06/23 00:20:46;;;;;;;7.25;3.28;;;19.20;99.90;;;;;;5017654;28;20048;-75
2023/06/23 00:23:12;;;;;;;5.07;2.80;;;19.10;99.90;;;;;;5018190;28;20022;-75
2023/06/23 00:25:38;;;;;;;5.32;2.72;;;19.20;99.90;;;;;;5017184;28;20025;-75
2023/06/23 00:28:05;;;;;;;7.78;3.17;;;19.20;99.90;;;;;;5017375;28;20128;-75
2023/06/23 00:30:30;;;;;;;3.40;2.70;;;19.20;99.90;;;;;;5017347;28;20060;-75
2023/06/23 00:32:56;;;;;;;5.32;3.08;;;19.20;99.90;;;;;;5017674;28;20034;-75
2023/06/23 00:35:22;;;;;;;3.90;2.55;;;19.20;99.90;;;;;;5017571;28;20021;-75
2023/06/23 00:37:47;;;;;;;4.22;2.47;;;19.10;99.90;;;;;;5017701;28;20084;-75
2023/06/23 00:40:15;;;;;;;5.85;2.88;;;19.00;99.90;;;;;;5016497;28;20053;-75
2023/06/23 00:42:45;;;;;;;3.42;2.58;;;19.20;99.90;;;;;;5017777;28;20021;-75
2023/06/23 00:45:11;;;;;;;4.03;2.80;;;19.30;99.90;;;;;;5017284;28;20053;-75
2023/06/23 00:47:36;;;;;;;4.03;2.65;;;19.30;99.90;;;;;;5017339;28;20029;-75
2023/06/23 00:50:02;;;;;;;4.22;2.28;;;19.30;99.90;;;;;;5017004;28;20026;-74
2023/06/23 00:52:28;;;;;;;4.85;2.88;;;19.20;99.90;;;;;;5016804;28;20026;-75
2023/06/23 00:54:53;;;;;;;4.05;2.75;;;19.20;99.90;;;;;;5017410;28;20123;-74
2023/06/23 00:57:19;;;;;;;4.22;2.60;;;19.10;99.90;;;;;;5016836;28;20029;-75
2023/06/23 00:59:45;;;;;;;5.75;2.90;;;19.00;99.90;;;;;;5016718;28;20022;-75
2023/06/23 01:02:10;;;;;;;3.85;2.60;;;19.00;99.90;;;;;;5016778;28;20026;-75
2023/06/23 01:04:36;;;;;;;4.13;2.80;;;18.90;99.90;;;;;;5016494;28;20076;-75
2023/06/23 01:07:15;;;;;;;6.22;2.70;;;19.00;99.90;;;;;;5016890;28;20018;-75
2023/06/23 01:10:12;;;;;;;4.32;2.75;;;19.20;99.90;;;;;;5016721;28;20022;-75
2023/06/23 01:13:14;;;;;;;4.28;2.70;;;19.20;99.90;;;;;;5016758;28;20026;-75
2023/06/23 01:15:58;;;;;;;4.72;2.63;;;19.00;99.90;;;;;;5017461;28;20029;-74
2023/06/23 01:18:41;;;;;;;3.22;2.08;;;19.00;99.90;;;;;;5017251;28;20025;-75
2023/06/23 01:21:10;;;;;;;2.97;2.40;;;19.00;99.90;;;;;;5017211;28;20022;-74
2023/06/23 01:23:45;;;;;;;3.58;2.40;;;18.90;99.90;;;;;;5016262;28;20080;-75
2023/06/23 01:26:48;;;;;;;4.00;2.25;;;18.90;99.90;;;;;;5016547;28;20022;-75
2023/06/23 01:29:21;;;;;;;4.32;2.50;;;19.00;99.90;;;;;;5017311;28;20076;-75
2023/06/23 01:32:10;;;;;;;8.02;2.83;;;19.00;99.90;;;;;;5016653;28;20022;-75
2023/06/23 01:34:39;;;;;;;4.28;2.33;;;19.10;99.90;;;;;;5016297;28;20026;-75
2023/06/23 01:37:18;;;;;;;8.07;2.75;;;19.10;99.90;;;;;;5040265;22;20042;-72
2023/06/23 01:39:48;;;;;;;5.60;2.25;;;19.30;99.90;;;;;;5032603;28;20113;-72
2023/06/23 01:42:17;;;;;;;4.88;2.80;;;19.20;99.90;;;;;;5016903;28;20026;-72
2023/06/23 01:44:47;;;;;;;4.00;2.35;;;19.20;99.90;;;;;;5016106;28;20128;-72
2023/06/23 01:47:18;;;;;;;5.03;2.28;;;19.10;99.90;;;;;;5016024;28;20029;-72
2023/06/23 01:49:45;;;;;;;;;;;19.10;99.90;;;;;;5016402;28;20018;-73
2023/06/23 01:52:12;;;;;;;4.38;2.55;;;19.10;99.90;;;;;;5017765;28;19913;-72
2023/06/23 01:54:40;;;;;;;9.60;2.60;;;19.10;99.90;;;;;;5020434;28;20085;-73
2023/06/23 01:57:07;;;;;;;5.38;2.20;;;19.10;99.90;;;;;;5019753;28;20026;-73
2023/06/23 01:59:35;;;;;;;4.75;2.75;;;19.10;99.90;;;;;;5019847;28;20022;-72
2023/06/23 02:02:03;;;;;;;4.40;2.38;;;19.00;99.90;;;;;;5019629;28;20026;-72
2023/06/23 02:04:30;;;;;;;3.63;2.72;;;19.10;99.90;;;;;;5020455;28;20029;-73
2023/06/23 02:06:58;;;;;;;4.68;2.42;;;19.20;99.90;;;;;;5019898;28;20124;-73
2023/06/23 02:09:28;;;;;;;3.63;2.00;;;19.20;99.90;;;;;;5020798;28;20118;-72
2023/06/23 02:11:55;;;;;;;7.47;2.43;;;19.20;99.90;;;;;;5020291;28;20156;-72
2023/06/23 02:14:22;;;;;;;6.90;2.75;;;19.20;99.90;;;;;;5019532;28;20272;-73
2023/06/23 02:16:49;;;;;;;4.55;2.30;;;19.30;99.90;;;;;;5020426;28;20113;-73
2023/06/23 02:19:16;;;;;;;3.33;2.17;;;19.30;99.90;;;;;;5019427;28;20025;-73
2023/06/23 02:21:44;;;;;;;3.22;2.35;;;19.30;99.90;;;;;;5020265;28;20025;-72
2023/06/23 02:24:11;;;;;;;2.92;2.10;;;19.30;99.90;;;;;;5019251;28;20056;-73
2023/06/23 02:26:38;;;;;;;2.95;2.30;;;19.40;99.90;;;;;;5019521;28;20026;-73
2023/06/23 02:29:06;;;;;;;5.30;2.17;;;19.40;99.90;;;;;;5019206;28;20033;-73
2023/06/23 02:31:32;;;;;;;3.20;2.17;;;19.40;99.90;;;;;;5019225;28;20022;-72
2023/06/23 02:33:58;;;;;;;2.80;2.20;;;19.40;99.90;;;;;;5019140;28;20026;-73
2023/06/23 02:36:28;;;;;;;4.93;2.00;;;19.40;99.90;;;;;;5019055;28;20038;-73
2023/06/23 02:38:55;;;;;;;3.38;2.03;;;19.30;99.90;;;;;;5019405;28;20116;-72
2023/06/23 02:41:25;;;;;;;2.05;1.52;;;19.20;99.90;;;;;;5019960;28;20029;-73
2023/06/23 02:43:55;;;;;;;1.95;1.52;;;19.20;99.90;;;;;;5019247;28;20032;-72
2023/06/23 02:46:24;;;;;;;2.72;1.95;;;19.20;99.90;;;;;;5018903;28;20022;-72
2023/06/23 02:48:52;;;;;;;1.77;1.40;;;19.20;99.90;;;;;;5018783;28;20030;-73
2023/06/23 02:51:21;;;;;;;2.13;1.48;;;19.10;99.90;;;;;;5019235;28;20026;-72
2023/06/23 02:53:55;;;;;;;1.85;1.40;;;19.00;99.90;;;;;;5019595;28;20026;-73
2023/06/23 02:56:25;;;;;;;6.50;1.40;;;19.00;99.90;;;;;;5019742;28;20156;-72
2023/06/23 02:58:56;;;;;;;1.35;1.13;;;19.00;99.90;;;;;;5019478;28;20026;-72
2023/06/23 03:01:23;;;;;;;2.80;1.10;;;18.90;99.90;;;;;;5019424;28;20029;-72
2023/06/23 03:03:49;;;;;;;2.03;1.35;;;18.90;99.90;;;;;;5018289;28;20038;-73
2023/06/23 03:06:19;;;;;;;1.70;1.17;;;18.90;99.90;;;;;;5019422;28;20136;-72
2023/06/23 03:08:47;;;;;;;1.40;1.10;;;18.80;99.90;;;;;;5018729;28;20072;-72
2023/06/23 03:11:16;;;;;;;4.85;1.52;;;19.00;99.90;;;;;;5018854;28;20022;-73
2023/06/23 03:13:41;;;;;;;3.45;1.70;;;19.00;99.90;;;;;;5018348;28;20026;-73
2023/06/23 03:16:11;;;;;;;2.33;1.60;;;19.00;99.90;;;;;;5018575;28;20061;-72
2023/06/23 03:18:41;;;;;;;2.47;2.00;;;19.10;99.90;;;;;;5018318;28;20026;-72
2023/06/23 03:21:09;;;;;;;2.50;1.40;;;19.10;99.90;;;;;;5019508;28;20048;-73
2023/06/23 03:23:38;;;;;;;6.10;1.60;;;19.00;99.90;;;;;;5018183;28;20030;-73
2023/06/23 03:26:06;;;;;;;1.90;1.50;;;19.00;99.90;;;;;;5018152;28;20030;-73
2023/06/23 03:28:36;;;;;;;1.98;1.40;;;19.10;99.90;;;;;;5018797;28;20029;-73
2023/06/23 03:31:07;;;;;;;2.13;1.33;;;19.10;99.90;;;;;;5018127;28;20029;-72
2023/06/23 03:33:34;;;;;;;;;;;19.10;99.90;;;;;;5019209;28;20125;-72
2023/06/23 03:36:21;;;;;;;2.10;1.33;;;19.10;99.90;;;;;;5017976;28;19982;-73
2023/06/23 03:39:01;;;;;;;6.32;1.50;;;19.10;99.90;;;;;;5017883;28;20057;-72
2023/06/23 03:41:31;;;;;;;4.50;1.20;;;19.10;99.90;;;;;;5018913;28;20026;-72
2023/06/23 03:44:01;;;;;;;2.00;1.58;;;19.10;99.90;;;;;;5017768;28;20025;-72
2023/06/23 03:46:39;;;;;;;1.67;1.30;;;19.10;99.90;;;;;;5018954;28;20018;-72
2023/06/23 03:49:07;;;;;;;1.95;1.30;;;19.10;99.90;;;;;;5017978;28;20034;-73
2023/06/23 03:51:36;;;;;;;4.07;1.42;;;19.00;99.90;;;;;;5017926;28;20022;-72
2023/06/23 03:54:03;;;;;;;1.92;1.58;;;19.00;99.90;;;;;;5017704;28;20111;-72
2023/06/23 03:56:33;;;;;;;2.45;1.30;;;19.00;99.90;;;;;;5017619;28;20022;-72
2023/06/23 03:59:00;;;;;;;2.03;1.70;;;19.00;99.90;;;;;;5018735;28;20050;-73
2023/06/23 04:01:28;;;;;;;4.43;1.60;;;19.00;99.90;;;;;;5017645;28;20036;-73
2023/06/23 04:03:55;;;;;;;1.67;1.58;;;19.10;99.90;;;;;;5017509;28;20034;-73
2023/06/23 04:06:22;;;;;;;2.05;1.52;;;19.10;99.90;;;;;;5018076;28;20030;-72
2023/06/23 04:08:49;;;;;;;2.33;1.75;;;19.10;99.90;;;;;;5017936;28;20116;-72
2023/06/23 04:11:16;;;;;;;2.13;1.40;;;19.00;99.90;;;;;;5017606;28;20026;-72
2023/06/23 04:13:42;;;;;;;3.13;1.75;;;19.00;99.90;;;;;;5017620;28;20026;-73
2023/06/23 04:16:09;;;;;;;2.30;1.67;;;19.00;99.90;;;;;;5016813;28;20104;-73
2023/06/23 04:18:37;;;;;;;3.92;1.73;;;19.10;99.90;;;;;;5017061;28;20038;-73
2023/06/23 04:21:06;;;;;;;1.70;1.30;;;19.10;99.90;;;;;;5017790;28;20075;-73
2023/06/23 04:23:34;;;;;;;3.83;1.70;;;19.00;99.90;;;;;;5018208;28;20030;-72
2023/06/23 04:26:01;;;;;;;1.77;1.52;;;18.90;99.90;;;;;;5017788;28;20061;-72
2023/06/23 04:28:28;;;;;;;3.20;1.90;;;18.90;99.90;;;;;;5017018;28;20025;-73
2023/06/23 04:30:58;;;;;;;3.13;1.75;;;18.90;99.90;;;;;;5016987;28;20026;-72
2023/06/23 04:33:23;;;;;;;2.53;1.60;;;18.90;99.90;;;;;;5017010;28;20022;-72
2023/06/23 04:35:54;;;;;;;2.50;1.50;;;19.00;99.90;;;;;;5017837;28;20072;-72
2023/06/23 04:38:23;;;;;;;2.35;1.73;;;19.00;99.90;;;;;;5016828;28;20104;-72
2023/06/23 04:40:56;;;;;;;3.70;1.70;;;19.00;99.90;;;;;;5018288;28;20037;-72
2023/06/23 04:43:29;;;;;;;2.65;1.67;;;19.10;99.90;;;;;;5016860;28;20081;-72
2023/06/23 04:45:59;;;;;;;1.48;1.35;;;19.20;99.90;;;;;;5017371;28;20022;-72
2023/06/23 04:48:29;;;;;;;2.30;1.75;;;19.20;99.90;;;;;;5017543;28;20022;-73
2023/06/23 04:50:56;;;;;;;2.10;1.58;;;19.30;99.90;;;;;;5016983;28;20037;-72
2023/06/23 04:53:30;;;;;;;2.58;1.70;;;19.30;99.90;;;;;;5016709;28;20088;-72
2023/06/23 04:56:00;;;;;;;2.90;1.65;;;19.30;99.90;;;;;;5017037;28;20050;-73
2023/06/23 04:58:29;;;;;;;4.40;1.63;;;19.40;99.90;;;;;;5017367;28;20030;-72
2023/06/23 05:00:56;;;;;;;2.35;1.85;;;19.40;99.90;;;;;;5017522;28;20026;-72
2023/06/23 05:03:23;;;;;;;3.25;1.80;;;19.40;99.90;;;;;;5016565;28;20025;-73
2023/06/23 05:05:57;;;;;;;2.72;1.50;;;19.50;99.90;;;;;;5016414;28;20026;-73
2023/06/23 05:08:25;;;;;;;2.20;1.77;;;19.60;99.90;;;;;;5017266;28;20050;-73
2023/06/23 05:10:52;;;;;;;3.47;1.98;;;19.60;99.90;;;;;;5016332;28;20022;-73
2023/06/23 05:13:19;;;;;;;3.25;1.83;;;19.60;99.90;;;;;;5016524;28;20149;-73
2023/06/23 05:15:47;;;;;;;4.50;2.15;;;19.60;99.90;;;;;;5016641;28;20030;-72
2023/06/23 05:18:16;;;;;;;2.40;2.10;;;19.60;99.90;;;;;;5016222;28;20026;-72
2023/06/23 05:20:44;;;;;;;2.78;2.00;;;19.70;99.90;;;;;;5016517;28;20029;-73
2023/06/23 05:23:12;;;;;;;3.03;2.17;;;19.70;99.90;;;;;;5017219;28;20101;-73
2023/06/23 05:25:38;;;;;;;3.28;2.05;;;19.70;99.90;;;;;;5016496;28;20034;-72
2023/06/23 05:28:05;;;;;;;3.00;2.30;;;19.60;99.90;;;;;;5023620;28;20017;-72
2023/06/23 05:30:32;;;;;;;3.60;2.40;;;19.70;99.90;;;;;;5023260;28;20029;-73
2023/06/23 05:33:00;;;;;;;2.63;1.90;;;19.60;99.90;;;;;;5023626;28;20112;-73
2023/06/23 05:35:26;;;;;;;2.70;2.10;;;19.70;99.90;;;;;;5023502;28;20095;-72
2023/06/23 05:37:53;;;;;;;4.85;1.95;;;19.60;99.90;;;;;;5023585;28;20080;-73
2023/06/23 05:40:19;;;;;;;4.00;1.92;;;19.60;99.90;;;;;;5022894;28;20061;-73
2023/06/23 05:42:46;;;;;;;1.80;1.65;;;19.60;99.90;;;;;;5023400;28;20026;-73
2023/06/23 05:45:12;;;;;;;3.03;1.90;;;19.50;99.90;;;;;;5023358;28;20033;-73
2023/06/23 05:47:51;;;;;;;4.03;2.20;;;19.60;99.90;;;;;;5022683;28;20018;-72
2023/06/23 05:50:33;;;;;;;2.75;1.88;;;19.70;99.90;;;;;;5023836;28;20022;-73
2023/06/23 05:53:14;;;;;;;5.78;2.45;;;19.70;99.90;;;;;;5023368;28;20018;-73
2023/06/23 05:55:50;;;;;;;3.47;1.77;;;19.60;99.90;;;;;;5022734;28;20049;-73
2023/06/23 05:58:19;;;;;;;2.50;2.00;;;19.70;99.90;;;;;;5022410;28;20030;-73
2023/06/23 06:00:57;;;;;;;3.22;2.50;;;19.70;99.90;;;;;;5022574;28;20105;-72
2023/06/23 06:03:36;;;;;;;3.78;2.15;;;19.70;99.90;;;;;;5022305;28;20022;-72
2023/06/23 06:06:04;;;;;;;4.65;2.05;;;19.70;99.90;;;;;;5022540;28;20112;-74
2023/06/23 06:08:33;;;;;;;3.60;2.28;;;19.70;99.90;;;;;;5022550;28;20026;-74
2023/06/23 06:10:59;;;;;;;5.55;1.85;;;19.70;99.90;;;;;;5022503;28;20022;-74
2023/06/23 06:13:28;;;;;;;3.42;2.15;;;19.80;99.90;;;;;;5022877;28;20029;-74
2023/06/23 06:15:56;;;;;;;2.78;2.00;;;19.70;99.90;;;;;;5023154;28;20029;-74
2023/06/23 06:18:24;;;;;;;2.67;2.10;;;19.80;99.90;;;;;;5022294;28;20033;-74
2023/06/23 06:20:51;;;;;;;4.30;2.53;;;19.70;99.90;;;;;;5023248;28;20029;-74
2023/06/23 06:23:19;;;;;;;2.65;2.20;;;19.70;99.90;;;;;;5022310;28;20152;-74
2023/06/23 06:25:49;;;;;;;3.90;1.80;;;19.70;99.90;;;;;;5022400;28;20030;-74
2023/06/23 06:28:16;;;;;;;2.85;1.42;;;19.70;99.90;;;;;;5022189;28;20017;-75
2023/06/23 06:30:42;;;;;;;4.97;2.03;;;19.80;99.90;;;;;;5022312;28;20026;-75
2023/06/23 06:33:09;;;;;;;3.85;1.92;;;19.80;99.90;;;;;;5022474;28;20022;-74
2023/06/23 06:35:37;;;;;;;3.13;2.20;;;19.80;99.90;;;;;;5022197;28;20116;-74
2023/06/23 06:38:05;;;;;;;2.42;1.90;;;19.80;99.90;;;;;;5020144;28;20034;-74
2023/06/23 06:40:32;;;;;;;2.40;1.58;;;19.80;99.90;;;;;;5019117;28;20034;-74
2023/06/23 06:42:58;;;;;;;5.28;1.95;;;19.80;99.90;;;;;;5019089;28;20030;-74
2023/06/23 06:45:24;;;;;;;3.70;1.85;;;19.90;99.90;;;;;;5019650;28;20053;-73
2023/06/23 06:47:50;;;;;;;3.88;1.45;;;20.10;99.90;;;;;;5019732;28;20061;-73
2023/06/23 06:50:17;;;;;;;3.35;1.85;;;20.00;99.90;;;;;;5019675;28;20022;-74
2023/06/23 06:52:46;;;;;;;3.58;1.73;;;20.20;99.90;;;;;;5018809;28;20025;-74
2023/06/23 06:55:19;;;;;;;3.78;1.85;;;20.20;99.90;;;;;;5019477;28;20030;-74
2023/06/23 06:57:49;;;;;;;2.55;1.70;;;20.20;99.90;;;;;;5018909;28;20120;-75
2023/06/23 07:00:19;;;;;;;3.28;1.88;;;20.20;99.90;;;;;;5019558;28;20034;-74
2023/06/23 07:02:45;;;;;;;3.75;2.03;;;20.30;99.90;;;;;;5019432;28;20026;-74
2023/06/23 07:05:12;;;;;;;2.75;1.80;;;20.20;99.90;;;;;;5018668;28;20041;-74
2023/06/23 07:07:37;;;;;;;3.35;1.88;;;20.20;99.90;;;;;;5018389;28;20018;-75
2023/06/23 07:10:04;;;;;;;3.17;2.10;;;20.20;99.90;;;;;;5018588;28;20108;-74
2023/06/23 07:12:31;;;;;;;2.50;1.88;;;20.30;99.90;;;;;;5018527;28;20032;-74
2023/06/23 07:14:57;;;;;;;3.45;2.53;;;20.30;99.90;;;;;;5018854;28;20029;-75
2023/06/23 07:17:22;;;;;;;4.03;2.10;;;20.30;99.90;;;;;;5018708;28;20103;-75
2023/06/23 07:19:48;;;;;;;3.33;2.13;;;20.30;99.90;;;;;;5018842;28;20053;-75
2023/06/23 07:22:14;;;;;;;3.67;2.20;;;20.40;99.90;;;;;;5018646;28;20056;-74
2023/06/23 07:24:39;;;;;;;4.32;2.42;;;20.30;99.90;;;;;;5018946;28;20026;-74
2023/06/23 07:27:05;;;;;;;3.28;2.10;;;20.20;99.90;;;;;;5018986;28;20040;-71
2023/06/23 07:29:31;;;;;;;3.03;2.53;;;20.20;99.90;;;;;;5018469;28;20101;-72
2023/06/23 07:31:57;;;;;;;3.08;2.20;;;20.20;99.90;;;;;;5018066;28;20122;-73
2023/06/23 07:34:22;;;;;;;3.60;2.55;;;20.20;99.90;;;;;;5018862;28;20022;-73
2023/06/23 07:36:48;;;;;;;2.92;2.42;;;20.40;99.90;;;;;;5017917;28;20033;-73
2023/06/23 07:39:14;;;;;;;3.30;2.25;;;20.50;99.90;;;;;;5018546;28;20038;-76
2023/06/23 07:41:40;;;;;;;3.53;2.10;;;20.50;99.90;;;;;;5019058;28;20029;-77
2023/06/23 07:44:05;;;;;;;3.33;2.47;;;20.40;99.90;;;;;;5018588;28;20018;-76
2023/06/23 07:46:32;;;;;;;2.72;2.00;;;20.40;99.90;;;;;;5019069;28;20033;-75
2023/06/23 07:48:58;;;;;;;4.18;2.53;;;20.40;99.90;;;;;;5017685;28;20100;-76
2023/06/23 07:51:23;;;;;;;8.23;2.60;;;20.40;99.90;;;;;;5017049;28;20026;-75
2023/06/23 07:53:49;;;;;;;3.92;2.40;;;20.50;99.90;;;;;;5018761;28;20030;-75
2023/06/23 07:56:14;;;;;;;3.25;2.20;;;20.50;99.90;;;;;;5017607;28;20026;-75
2023/06/23 07:58:40;;;;;;;4.38;2.22;;;20.50;99.90;;;;;;5018397;28;20022;-76
2023/06/23 08:01:06;;;;;;;4.47;2.60;;;20.50;99.90;;;;;;5017602;28;20029;-75
2023/06/23 08:03:32;;;;;;;3.20;2.40;;;20.50;99.90;;;;;;5017457;28;20032;-75
2023/06/23 08:05:58;;;;;;;5.00;2.53;;;20.60;99.90;;;;;;5018054;28;20018;-76
2023/06/23 08:08:23;;;;;;;6.35;2.75;;;20.70;99.90;;;;;;5017676;28;20018;-76
2023/06/23 08:10:49;;;;;;;4.50;2.42;;;20.70;99.90;;;;;;5017681;28;20108;-76
2023/06/23 08:13:15;;;;;;;3.85;2.47;;;20.70;99.90;;;;;;5017230;28;20049;-75
2023/06/23 08:15:41;;;;;;;3.08;2.40;;;20.80;99.90;;;;;;5017706;28;20029;-75
2023/06/23 08:18:07;;;;;;;4.15;2.47;;;20.90;99.90;;;;;;5017118;28;20036;-75
2023/06/23 08:20:33;;;;;;;3.88;2.30;;;20.80;99.90;;;;;;5017729;28;20080;-75
2023/06/23 08:22:58;;;;;;;4.13;2.70;;;20.90;99.90;;;;;;5017111;28;20029;-75
2023/06/23 08:25:24;;;;;;;4.32;2.90;;;20.90;99.90;;;;;;5017123;28;20026;-75
2023/06/23 08:27:49;;;;;;;3.63;2.40;;;20.90;99.90;;;;;;5017089;28;20026;-75
2023/06/23 08:30:15;;;;;;;3.70;2.33;;;20.80;99.90;;;;;;5017278;28;20061;-75
2023/06/23 08:32:41;;;;;;;4.00;1.95;;;20.80;99.90;;;;;;5017230;28;20022;-75
2023/06/23 08:35:07;;;;;;;4.00;2.13;;;20.90;99.90;;;;;;5017905;28;20033;-75
2023/06/23 08:37:32;;;;;;;2.88;2.08;;;20.80;99.90;;;;;;5017305;28;20040;-75
2023/06/23 08:39:58;;;;;;;4.82;2.50;;;20.70;99.90;;;;;;5016889;28;20083;-75
2023/06/23 08:42:25;;;;;;;2.95;2.22;;;20.70;99.90;;;;;;5016824;28;20029;-74
2023/06/23 08:44:52;;;;;;;2.53;2.10;;;20.80;99.90;;;;;;5016822;28;20109;-75
2023/06/23 08:47:19;;;;;;;3.05;2.28;;;20.70;99.90;;;;;;5017003;28;20098;-75
2023/06/23 08:49:48;;;;;;;5.38;2.20;;;20.70;99.90;;;;;;5016887;28;20053;-75
2023/06/23 08:52:17;;;;;;;6.50;2.78;;;20.70;99.90;;;;;;5016680;28;20049;-76
2023/06/23 08:54:43;;;;;;;2.97;2.05;;;20.70;99.90;;;;;;5016526;28;20030;-75
2023/06/23 08:57:08;;;;;;;4.00;2.50;;;20.70;99.90;;;;;;5016650;28;20034;-75
2023/06/23 08:59:34;;;;;;;4.45;2.40;;;20.80;99.90;;;;;;5016575;28;20112;-76
2023/06/23 09:01:59;;;;;;;3.90;2.50;;;20.90;99.90;;;;;;5016523;28;20032;-76
2023/06/23 09:04:25;;;;;;;3.17;2.17;;;20.90;99.90;;;;;;5016654;28;20026;-76
2023/06/23 09:06:51;;;;;;;3.63;2.38;;;20.80;99.90;;;;;;5017012;28;20028;-76
2023/06/23 09:09:18;;;;;;;3.10;2.10;;;20.80;99.90;;;;;;5017309;28;20114;-75
2023/06/23 09:11:44;;;;;;;4.57;2.35;;;20.90;99.90;;;;;;5016904;28;20026;-75
2023/06/23 09:14:10;;;;;;;3.28;2.13;;;20.90;99.90;;;;;;5017407;28;20022;-75
2023/06/23 09:16:38;;;;;;;8.60;2.40;;;20.90;99.90;;;;;;5017034;28;20037;-76
2023/06/23 09:19:05;;;;;;;5.90;2.58;;;20.90;99.90;;;;;;5016396;28;20058;-75
2023/06/23 09:21:34;;;;;;;5.18;2.58;;;20.80;99.90;;;;;;5016323;28;20056;-76
2023/06/23 09:24:03;;;;;;;5.30;2.60;;;20.90;99.90;;;;;;5016248;28;20104;-75
2023/06/23 09:26:30;;;;;;;4.07;2.88;;;20.90;99.90;;;;;;5017265;28;20018;-75
2023/06/23 09:29:16;;;;;;;4.35;2.40;;;20.90;99.90;;;;;;5016157;28;20022;-76
2023/06/23 09:31:42;;;;;;;3.22;2.22;;;20.70;99.90;;;;;;5016426;28;20033;-76
2023/06/23 09:34:08;;;;;;;4.75;2.72;;;20.70;99.90;;;;;;5016214;28;20022;-76
2023/06/23 09:36:35;;;;;;;3.67;2.40;;;20.80;99.90;;;;;;5016266;28;20097;-75
2023/06/23 09:39:01;;;;;;;3.10;2.55;;;20.80;99.90;;;;;;5016049;28;20140;-75
2023/06/23 09:41:31;;;;;;;4.10;2.58;;;20.80;99.90;;;;;;5016376;28;20037;-75
2023/06/23 09:43:57;;;;;;;7.03;2.95;;;20.90;99.90;;;;;;5015992;28;20058;-76
2023/06/23 09:46:22;;;;;;;4.72;2.38;;;21.00;99.90;;;;;;5016326;28;20021;-75
2023/06/23 09:48:49;;;;;;;6.13;2.80;;;21.10;99.90;;;;;;5016453;28;20115;-76
2023/06/23 09:51:19;;;;;;;4.57;2.97;;;21.10;99.90;;;;;;5017038;28;20014;-75
2023/06/23 09:53:45;;;;;;;3.88;2.55;;;21.30;99.90;;;;;;5015984;28;20033;-76
2023/06/23 09:56:16;;;;;;;4.03;2.33;;;21.40;99.90;;;;;;5017217;28;20026;-75
2023/06/23 09:58:42;;;;;;;5.25;2.42;;;21.40;99.90;;;;;;5015855;28;20034;-75
2023/06/23 10:01:14;;;;;;;3.47;2.45;;;21.60;99.90;;;;;;5016319;28;20026;-76
2023/06/23 10:03:49;;;;;;;;;;;21.70;99.90;;;;;;5016260;28;20025;-76
2023/06/23 10:06:31;;;;;;;3.78;2.60;;;21.80;99.90;;;;;;5016381;28;19909;-76
2023/06/23 10:08:57;;;;;;;;;;;21.90;99.90;;;;;;5017197;28;20029;-76
2023/06/23 10:11:34;;;;;;;4.43;2.70;;;22.00;99.90;;;;;;5016804;28;19905;-76
2023/06/23 10:14:05;;;;;;;5.25;3.03;;;21.90;99.90;;;;;;5017937;28;20022;-76
2023/06/23 10:16:31;;;;;;;3.65;2.63;;;22.00;99.90;;;;;;5020223;28;20018;-76
2023/06/23 10:18:57;;;;;;;4.43;2.40;;;22.00;99.90;;;;;;5020386;28;20117;-75
2023/06/23 10:21:23;;;;;;;3.85;2.75;;;22.00;99.90;;;;;;5019612;28;20064;-76
2023/06/23 10:23:50;;;;;;;3.38;2.70;;;22.10;99.90;;;;;;5019676;28;20029;-75
2023/06/23 10:26:17;;;;;;;8.50;2.67;;;22.00;99.90;;;;;;5019965;28;20022;-76
2023/06/23 10:28:48;;;;;;;5.47;2.72;;;22.10;99.90;;;;;;5019410;28;20026;-76
2023/06/23 10:31:14;;;;;;;7.25;3.38;;;22.10;99.90;;;;;;5019931;28;20022;-76
2023/06/23 10:33:42;;;;;;;6.10;2.65;;;22.20;99.90;;;;;;5019139;28;20026;-76
2023/06/23 10:36:12;;;;;;;6.90;2.70;;;22.20;99.90;;;;;;5019170;28;20156;-76
2023/06/23 10:38:42;;;;;;;5.85;2.72;;;22.30;99.90;;;;;;5019074;28;20026;-76
2023/06/23 10:41:10;;;;;;;3.15;2.28;;;22.20;99.90;;;;;;5020034;28;20034;-76
2023/06/23 10:43:39;;;;;;;5.93;2.97;;;22.20;99.90;;;;;;5019019;28;20022;-76
2023/06/23 10:46:06;;;;;;;3.20;2.20;;;22.20;99.90;;;;;;5019081;28;20080;-76
2023/06/23 10:48:32;;;;;;;5.82;2.67;;;22.30;99.90;;;;;;5019242;28;20026;-76
2023/06/23 10:50:59;;;;;;;5.10;2.38;;;22.40;99.90;;;;;;5018817;28;20026;-76
2023/06/23 10:53:32;;;;;;;4.25;2.78;;;22.40;99.90;;;;;;5019806;28;20025;-76
2023/06/23 10:55:59;;;;;;;3.05;2.50;;;22.40;99.90;;;;;;5018896;28;20065;-76
2023/06/23 10:58:25;;;;;;;4.82;2.58;;;22.50;99.90;;;;;;5019642;28;20057;-75
2023/06/23 11:00:54;;;;;;;4.28;2.90;;;22.50;99.90;;;;;;5019625;28;20104;-76
2023/06/23 11:03:34;;;;;;;4.38;3.17;;;22.50;99.90;;;;;;5018858;28;20022;-76
2023/06/23 11:06:03;;;;;;;4.60;2.67;;;22.60;99.90;;;;;;5018601;28;20022;-76
2023/06/23 11:08:35;;;;;;;7.25;3.30;;;22.70;99.90;;;;;;5018912;28;20029;-76
2023/06/23 11:11:04;;;;;;;4.35;2.95;;;22.90;99.90;;;;;;5018716;28;20025;-76
2023/06/23 11:13:46;;;;;;;5.95;3.10;;;23.00;99.90;;;;;;5018526;28;20026;-75
2023/06/23 11:16:17;;;;;;;4.47;2.40;;;23.10;99.90;;;;;;5019289;28;20030;-76
2023/06/23 11:18:51;;;;;;;3.92;2.63;;;23.20;99.90;;;;;;5018368;28;20028;-76
2023/06/23 11:21:29;;;;;;;4.72;3.10;;;23.20;99.90;;;;;;5019602;28;20065;-75
2023/06/23 11:24:20;;;;;;;4.40;2.67;;;23.30;99.90;;;;;;5018607;28;20116;-76
2023/06/23 11:26:48;;;;;;;3.92;2.47;;;23.40;99.90;;;;;;5018270;28;20018;-76
2023/06/23 11:29:17;;;;;;;3.42;2.70;;;23.60;99.90;;;;;;5018272;28;20033;-76
2023/06/23 11:32:05;;;;;;;3.97;2.17;;;23.80;99.90;;;;;;5018105;28;20085;-76
2023/06/23 11:34:48;;;;;;;2.78;2.30;;;24.00;99.90;;;;;;5018993;28;20026;-76
2023/06/23 11:37:14;;;;;;;5.40;2.75;;;24.00;99.90;;;;;;5017849;28;20033;-76
2023/06/23 11:39:40;;;;;;;4.32;3.20;;;24.10;99.90;;;;;;5019297;28;20022;-76
2023/06/23 11:42:06;;;;;;;3.60;2.65;;;24.20;99.90;;;;;;5017945;28;20021;-75
2023/06/23 11:44:32;;;;;;;3.75;2.80;;;24.10;99.90;;;;;;5018207;28;20034;-76
2023/06/23 11:46:57;;;;;;;3.92;2.40;;;23.90;99.90;;;;;;5018318;28;20025;-76
2023/06/23 11:49:23;;;;;;;5.22;2.88;;;24.00;99.90;;;;;;5017834;28;20033;-76
2023/06/23 11:51:49;;;;;;;5.15;3.35;;;24.10;99.90;;;;;;5017847;28;20068;-76
2023/06/23 11:54:16;;;;;;;3.70;2.67;;;24.00;99.90;;;;;;5018472;28;20030;-76
2023/06/23 11:56:42;;;;;;;4.75;2.78;;;24.10;99.90;;;;;;5018538;28;20034;-76
2023/06/23 11:59:10;;;;;;;4.07;2.80;;;24.10;99.90;;;;;;5017444;28;20030;-76
2023/06/23 12:01:35;;;;;;;4.22;2.50;;;24.20;99.90;;;;;;5017713;28;20045;-76
2023/06/23 12:04:02;;;;;;;3.70;2.45;;;24.10;99.90;;;;;;5017519;28;20037;-76
2023/06/23 12:06:27;;;;;;;4.28;2.67;;;24.00;99.90;;;;;;5017994;28;20022;-76
2023/06/23 12:08:54;;;;;;;4.80;3.05;;;24.00;99.90;;;;;;5017603;28;20033;-76
2023/06/23 12:11:20;;;;;;;3.10;2.47;;;23.90;99.90;;;;;;5018277;28;20042;-76
2023/06/23 12:13:48;;;;;;;3.80;2.60;;;23.80;99.90;;;;;;5017219;28;20153;-76
2023/06/23 12:16:14;;;;;;;4.82;2.67;;;23.90;99.90;;;;;;5017354;28;20164;-76
2023/06/23 12:18:50;;;;;;;4.50;2.67;;;23.80;99.90;;;;;;5017241;28;20093;-76
2023/06/23 12:21:17;;;;;;;4.82;2.88;;;23.70;99.90;;;;;;5017297;28;20022;-76
2023/06/23 12:23:46;;;;;;;5.55;2.58;;;23.60;99.90;;;;;;5017073;28;20080;-76
2023/06/23 12:26:14;;;;;;;4.05;2.35;;;23.60;99.90;;;;;;5017422;28;20029;-76
2023/06/23 12:28:39;;;;;;;4.85;3.10;;;23.60;99.90;;;;;;5017212;28;20018;-75
2023/06/23 12:31:06;;;;;;;4.90;2.92;;;23.60;99.90;;;;;;5017047;28;20045;-76
2023/06/23 12:33:33;;;;;;;4.85;2.33;;;23.60;99.90;;;;;;5017125;28;20025;-75
2023/06/23 12:36:04;;;;;;;5.47;2.95;;;23.60;99.90;;;;;;5016562;28;20032;-76
2023/06/23 12:38:35;;;;;;;8.13;2.70;;;23.50;99.90;;;;;;5017265;28;20056;-75
2023/06/23 12:41:28;;;;;;;4.00;2.55;;;23.50;99.90;;;;;;5017786;28;20084;-75
2023/06/23 12:44:03;;;;;;;3.78;2.53;;;23.50;99.90;;;;;;5016969;28;20034;-76
2023/06/23 12:46:31;;;;;;;7.25;3.45;;;23.50;99.90;;;;;;5017077;28;20026;-76
2023/06/23 12:48:57;;;;;;;6.40;2.72;;;23.50;99.90;;;;;;5017059;28;20042;-76
2023/06/23 12:51:37;;;;;;;6.10;2.70;;;23.40;99.90;;;;;;5016793;28;20052;-76
2023/06/23 12:54:03;;;;;;;4.10;2.80;;;23.40;99.90;;;;;;5016795;28;20090;-76
2023/06/23 12:56:29;;;;;;;4.35;2.80;;;23.50;99.90;;;;;;5017816;28;20022;-76